Emine Anne — TCBX9 — position and weather

sailwx.info

Track history (hours):
 
Tides and Currents Weather Stations Pressure Air Temp Water Temp Dewpoint Dewpoint Depression Visibility Wind Speed Wind Dir Waves Ship Positions

Emine Anne

Last reported at 2015-Jul-03 11:10 UTC. Time now 2015-Jul-06 13:29 UTC.
Position N 43°54' E 034°25'.

Length 69 m; draft 4 m.

Type: Cargo ship. MMSI: 271002305.

Date/timePositionNaut miles runAvg speedWind from/ knotsBaromVisibWave heightAir tempDewpointWater temp
2015-Jul-03 11:10N 43°54' E 034°25'7 9.3
2015-Jul-03 10:28N 43°59' E 034°31'12 9.2
2015-Jul-03 09:11N 44°07' E 034°42'6 9.2
2015-Jul-03 08:33N 44°12' E 034°47'9 9.3
2015-Jul-03 07:33N 44°19' E 034°55'9 9.3
2015-Jul-03 06:33N 44°26' E 035°03'10 9.2
2015-Jul-03 05:27N 44°32' E 035°15'  
2015-Jun-26 08:24N 44°40' E 035°43'8 8.9
2015-Jun-26 07:27N 44°34' E 035°34'11 8.9
2015-Jun-26 06:15N 44°29' E 035°22'6 8.9
2015-Jun-26 05:33N 44°25' E 035°14'10 8.4
2015-Jun-26 04:19N 44°20' E 035°02'6 8.0
2015-Jun-26 03:33N 44°17' E 034°55'8 7.8
2015-Jun-26 02:33N 44°13' E 034°45'8 7.8
2015-Jun-26 01:31N 44°09' E 034°35'8 8.0
2015-Jun-26 00:32N 44°06' E 034°26'307 8.5
2015-Jun-24 12:28N 40°56' E 028°58'2 0.1
2015-Jun-23 21:14N 40°57' E 028°56'5 6.6
2015-Jun-23 20:33N 40°52' E 028°57'10 8.0
2015-Jun-23 19:17N 40°43' E 028°52'2 8.5
2015-Jun-23 19:03N 40°41' E 028°51'  
Track history (hours):
 
Tides and Currents Weather Stations Pressure Air Temp Water Temp Dewpoint Dewpoint Depression Visibility Wind Speed Wind Dir Waves Ship Positions

Emine Anne

Last reported at 2015-Jul-03 11:10 UTC. Time now 2015-Jul-06 13:29 UTC.
Position N 43°54' E 034°25'.

Length 69 m; draft 4 m.

Type: Cargo ship. MMSI: 271002305.

Date/timePositionNaut miles runAvg speedWind from/ knotsBaromVisibWave heightAir tempDewpointWater temp
2015-Jul-03 11:10N 43°54' E 034°25'7 9.3
2015-Jul-03 10:28N 43°59' E 034°31'12 9.2
2015-Jul-03 09:11N 44°07' E 034°42'6 9.2
2015-Jul-03 08:33N 44°12' E 034°47'9 9.3
2015-Jul-03 07:33N 44°19' E 034°55'9 9.3
2015-Jul-03 06:33N 44°26' E 035°03'10 9.2
2015-Jul-03 05:27N 44°32' E 035°15'  
2015-Jun-26 08:24N 44°40' E 035°43'8 8.9
2015-Jun-26 07:27N 44°34' E 035°34'11 8.9
2015-Jun-26 06:15N 44°29' E 035°22'6 8.9
2015-Jun-26 05:33N 44°25' E 035°14'10 8.4
2015-Jun-26 04:19N 44°20' E 035°02'6 8.0
2015-Jun-26 03:33N 44°17' E 034°55'8 7.8
2015-Jun-26 02:33N 44°13' E 034°45'8 7.8
2015-Jun-26 01:31N 44°09' E 034°35'8 8.0
2015-Jun-26 00:32N 44°06' E 034°26'307 8.5
2015-Jun-24 12:28N 40°56' E 028°58'2 0.1
2015-Jun-23 21:14N 40°57' E 028°56'5 6.6
2015-Jun-23 20:33N 40°52' E 028°57'10 8.0
2015-Jun-23 19:17N 40°43' E 028°52'2 8.5
2015-Jun-23 19:03N 40°41' E 028°51'  

Dump ship's entire track history